Time;durP1;ratioP1;P1;durP2;ratioP2;P2;SDS_P1;SDS_P2;PMS_P1;PMS_P2;Temp;Humidity;BMP_temperature;BMP_pressure;BME280_temperature;BME280_humidity;BME280_pressure;Samples;Min_cycle;Max_cycle;Signal;HPM_P1;HPM_P2
2023/09/09 00:02:18;;;;;;;24.70;15.23;;;;;;;;;;10117031;29;20025;-89
2023/09/09 00:07:19;;;;;;;21.83;15.23;;;;;;;;;;10104173;29;20037;-88
2023/09/09 00:12:20;;;;;;;23.00;15.70;;;;;;;;;;10104917;29;20032;-89
2023/09/09 00:17:21;;;;;;;24.02;15.32;;;;;;;;;;10103471;29;20089;-89
2023/09/09 00:22:22;;;;;;;20.80;15.00;;;;;;;;;;10105372;29;20024;-89
2023/09/09 00:27:23;;;;;;;22.65;16.27;;;;;;;;;;10103784;29;20052;-88
2023/09/09 00:32:24;;;;;;;21.40;15.35;;;;;;;;;;10112613;29;20107;-90
2023/09/09 00:37:26;;;;;;;20.42;15.30;;;;;;;;;;10119795;29;20076;-89
2023/09/09 00:42:27;;;;;;;23.05;16.15;;;;;;;;;;10114002;29;20064;-90
2023/09/09 00:47:28;;;;;;;23.60;15.57;;;;;;;;;;10110158;29;20045;-88
2023/09/09 00:52:29;;;;;;;20.92;14.48;;;;;;;;;;10111408;29;20404;-90
2023/09/09 00:57:30;;;;;;;21.83;16.17;;;;;;;;;;10110474;29;20123;-90
2023/09/09 01:02:32;;;;;;;22.40;15.02;;;;;;;;;;10109587;29;20445;-88
2023/09/09 01:07:44;;;;;;;23.48;15.32;;;;;;;;;;10109304;29;20636;-89
2023/09/09 01:12:45;;;;;;;22.15;15.68;;;;;;;;;;10109189;29;20051;-89
2023/09/09 01:17:48;;;;;;;22.60;16.27;;;;;;;;;;10107900;29;20482;-90
2023/09/09 01:22:49;;;;;;;24.80;16.85;;;;;;;;;;10117468;29;20043;-88
2023/09/09 01:27:50;;;;;;;21.67;15.82;;;;;;;;;;10111748;29;20044;-88
2023/09/09 01:32:51;;;;;;;23.05;16.00;;;;;;;;;;10108708;29;20054;-89
2023/09/09 01:37:53;;;;;;;24.10;16.85;;;;;;;;;;10107877;29;20041;-89
2023/09/09 01:42:54;;;;;;;23.05;16.23;;;;;;;;;;10107819;29;20643;-90
2023/09/09 01:47:55;;;;;;;21.23;16.30;;;;;;;;;;10108070;29;20032;-88
2023/09/09 01:52:56;;;;;;;22.98;15.75;;;;;;;;;;10108103;29;20047;-89
2023/09/09 01:57:57;;;;;;;21.20;14.43;;;;;;;;;;10106985;29;20036;-89
2023/09/09 02:02:58;;;;;;;27.05;18.27;;;;;;;;;;10107364;29;20084;-90
2023/09/09 02:07:59;;;;;;;23.48;16.50;;;;;;;;;;10107639;29;20461;-88
2023/09/09 02:13:01;;;;;;;27.75;18.75;;;;;;;;;;10106260;29;20377;-91
2023/09/09 02:18:02;;;;;;;27.90;17.67;;;;;;;;;;10106421;29;20079;-91
2023/09/09 02:23:03;;;;;;;26.70;16.52;;;;;;;;;;10106584;29;20033;-90
2023/09/09 02:28:04;;;;;;;26.02;17.50;;;;;;;;;;10106254;29;20056;-90
2023/09/09 02:33:05;;;;;;;23.05;15.98;;;;;;;;;;10105781;29;20032;-91
2023/09/09 02:38:06;;;;;;;24.05;15.90;;;;;;;;;;10119347;29;20038;-90
2023/09/09 02:43:08;;;;;;;22.50;14.70;;;;;;;;;;10106693;29;20032;-89
2023/09/09 02:48:09;;;;;;;20.48;15.00;;;;;;;;;;10105778;29;20024;-90
2023/09/09 02:53:10;;;;;;;19.90;15.15;;;;;;;;;;10105739;29;20111;-89
2023/09/09 02:58:13;;;;;;;20.52;14.70;;;;;;;;;;10107379;29;20098;-89
2023/09/09 03:03:20;;;;;;;24.90;16.33;;;;;;;;;;10104967;29;20040;-90
2023/09/09 03:08:21;;;;;;;20.13;13.95;;;;;;;;;;10119121;29;20143;-89
2023/09/09 03:13:22;;;;;;;20.58;15.23;;;;;;;;;;10107155;29;20036;-88
2023/09/09 03:18:23;;;;;;;18.23;14.07;;;;;;;;;;10104609;29;20040;-89
2023/09/09 03:23:24;;;;;;;25.67;16.77;;;;;;;;;;10105755;29;20045;-89
2023/09/09 03:28:25;;;;;;;22.35;16.38;;;;;;;;;;10108518;29;20445;-91
2023/09/09 03:33:27;;;;;;;29.67;18.85;;;;;;;;;;10104268;29;20124;-89
2023/09/09 03:38:28;;;;;;;25.33;17.83;;;;;;;;;;10105294;29;20019;-92
2023/09/09 03:43:29;;;;;;;24.92;17.48;;;;;;;;;;10104665;29;20907;-90
2023/09/09 03:48:30;;;;;;;22.65;16.77;;;;;;;;;;10104680;29;20029;-91
2023/09/09 03:53:31;;;;;;;22.35;16.50;;;;;;;;;;10105044;29;20893;-90
2023/09/09 03:58:33;;;;;;;27.00;17.20;;;;;;;;;;10105168;29;20124;-89
2023/09/09 04:03:34;;;;;;;24.17;17.23;;;;;;;;;;10103668;29;20041;-89
2023/09/09 04:08:36;;;;;;;25.45;17.77;;;;;;;;;;10131436;29;20028;-87
2023/09/09 04:13:40;;;;;;;27.42;18.58;;;;;;;;;;10144217;29;20069;-93
2023/09/09 04:18:41;;;;;;;31.58;21.92;;;;;;;;;;10125754;29;20123;-92
2023/09/09 04:23:42;;;;;;;28.60;20.75;;;;;;;;;;10122282;29;20033;-90
2023/09/09 04:28:43;;;;;;;28.83;19.95;;;;;;;;;;10129871;29;20059;-90
2023/09/09 04:33:44;;;;;;;30.85;21.70;;;;;;;;;;10127452;29;20040;-88
2023/09/09 04:38:45;;;;;;;30.10;19.52;;;;;;;;;;10127385;29;20013;-88
2023/09/09 04:43:46;;;;;;;24.77;18.00;;;;;;;;;;10124426;29;20547;-90
2023/09/09 04:48:52;;;;;;;25.92;18.48;;;;;;;;;;10119488;29;20060;-90
2023/09/09 04:53:53;;;;;;;40.85;25.58;;;;;;;;;;10127437;29;20119;-90
2023/09/09 04:58:54;;;;;;;37.58;23.65;;;;;;;;;;10121823;29;20043;-92
2023/09/09 05:03:56;;;;;;;33.10;22.48;;;;;;;;;;10128614;29;20049;-88
2023/09/09 05:08:57;;;;;;;32.95;23.48;;;;;;;;;;10124481;29;20033;-88
2023/09/09 05:13:58;;;;;;;30.80;21.55;;;;;;;;;;10122850;29;20033;-88
2023/09/09 05:18:59;;;;;;;30.70;20.27;;;;;;;;;;10111616;29;20032;-91
2023/09/09 05:24:01;;;;;;;28.90;20.52;;;;;;;;;;10124222;29;20033;-90
2023/09/09 05:29:02;;;;;;;32.22;21.60;;;;;;;;;;10113249;29;20080;-89
2023/09/09 05:34:03;;;;;;;30.35;21.88;;;;;;;;;;10125642;29;20028;-90
2023/09/09 05:39:04;;;;;;;31.23;22.90;;;;;;;;;;10135790;29;20040;-91
2023/09/09 05:44:05;;;;;;;29.40;21.52;;;;;;;;;;10123982;29;20400;-90
2023/09/09 05:49:06;;;;;;;31.55;24.05;;;;;;;;;;10124046;29;20041;-89
2023/09/09 05:54:08;;;;;;;30.83;20.83;;;;;;;;;;10123955;29;20127;-90
2023/09/09 05:59:10;;;;;;;30.83;22.65;;;;;;;;;;10104234;29;20120;-90
2023/09/09 06:04:15;;;;;;;31.77;21.77;;;;;;;;;;10098991;29;20045;-90
2023/09/09 06:09:16;;;;;;;27.52;19.88;;;;;;;;;;10091247;29;20567;-91
2023/09/09 06:14:17;;;;;;;26.75;19.20;;;;;;;;;;10113053;29;20088;-90
2023/09/09 06:19:18;;;;;;;26.20;19.73;;;;;;;;;;10084186;29;20764;-88
2023/09/09 06:24:20;;;;;;;23.38;17.45;;;;;;;;;;10105163;29;20075;-89
2023/09/09 06:29:21;;;;;;;23.63;16.40;;;;;;;;;;10117429;29;20075;-89
2023/09/09 06:34:22;;;;;;;25.38;17.48;;;;;;;;;;10115003;29;20706;-89
2023/09/09 06:39:23;;;;;;;25.75;17.35;;;;;;;;;;10119601;29;20021;-89
2023/09/09 06:44:24;;;;;;;19.70;14.73;;;;;;;;;;10119938;29;20032;-88
2023/09/09 06:49:26;;;;;;;23.08;15.10;;;;;;;;;;10117754;29;20388;-86
2023/09/09 06:54:27;;;;;;;20.33;14.07;;;;;;;;;;10118220;29;20068;-85
2023/09/09 06:59:28;;;;;;;20.30;13.15;;;;;;;;;;10116628;29;20032;-88
2023/09/09 07:04:29;;;;;;;24.85;14.88;;;;;;;;;;10117135;29;20072;-91
2023/09/09 07:09:33;;;;;;;17.95;12.10;;;;;;;;;;10105735;29;20682;-87
2023/09/09 07:14:34;;;;;;;18.80;12.90;;;;;;;;;;10121098;29;20096;-91
2023/09/09 07:19:35;;;;;;;16.35;11.95;;;;;;;;;;10117313;29;20032;-89
2023/09/09 07:24:36;;;;;;;18.85;12.05;;;;;;;;;;10120817;29;20062;-87
2023/09/09 07:30:10;;;;;;;21.98;12.65;;;;;;;;;;10121961;29;20060;-86
2023/09/09 07:35:26;;;;;;;18.02;11.68;;;;;;;;;;10134261;29;20028;-85
2023/09/09 07:40:27;;;;;;;20.08;11.65;;;;;;;;;;10103225;29;20334;-83
2023/09/09 07:51:07;;;;;;;21.52;11.88;;;;;;;;;;10128281;29;20048;-89
2023/09/09 08:01:47;;;;;;;18.17;12.32;;;;;;;;;;10124882;29;20041;-88
2023/09/09 08:07:13;;;;;;;21.80;11.98;;;;;;;;;;10126635;29;20056;-87
2023/09/09 08:12:14;;;;;;;16.98;10.13;;;;;;;;;;10094487;29;20528;-87
2023/09/09 08:17:16;;;;;;;16.45;10.30;;;;;;;;;;10111089;29;20120;-86
2023/09/09 08:22:17;;;;;;;18.15;11.38;;;;;;;;;;10128258;29;20028;-86
2023/09/09 08:27:18;;;;;;;14.18;10.65;;;;;;;;;;10111292;29;20056;-87
2023/09/09 08:32:22;;;;;;;13.40;9.73;;;;;;;;;;10111086;29;20037;-89
2023/09/09 08:37:23;;;;;;;12.10;9.17;;;;;;;;;;10128499;29;20603;-89
2023/09/09 08:42:31;;;;;;;13.25;8.45;;;;;;;;;;10104798;29;20118;-86
2023/09/09 08:47:41;;;;;;;12.63;9.30;;;;;;;;;;10109998;29;20605;-88
2023/09/09 08:52:43;;;;;;;14.07;8.15;;;;;;;;;;10123176;29;20021;-88
2023/09/09 09:03:24;;;;;;;13.70;8.77;;;;;;;;;;10122166;29;20041;-90
2023/09/09 09:08:25;;;;;;;10.52;7.82;;;;;;;;;;10108769;29;20112;-89
2023/09/09 09:13:26;;;;;;;14.38;8.20;;;;;;;;;;10118422;29;20044;-90
2023/09/09 09:24:36;;;;;;;13.93;8.88;;;;;;;;;;10131285;29;20037;-87
2023/09/09 09:29:39;;;;;;;14.30;8.82;;;;;;;;;;10124606;29;20080;-88
2023/09/09 09:52:37;;;;;;;37.03;8.63;;;;;;;;;;10464200;28;20952;-92
2023/09/09 09:58:00;;;;;;;11.95;7.82;;;;;;;;;;10481666;28;20128;-94
2023/09/09 10:19:00;;;;;;;8.95;6.47;;;;;;;;;;10433724;27;20948;-86
2023/09/09 10:29:37;;;;;;;9.45;7.70;;;;;;;;;;10357072;27;20410;-84
2023/09/09 10:34:41;;;;;;;9.68;7.25;;;;;;;;;;10340144;28;20058;-82
2023/09/09 10:39:42;;;;;;;10.80;7.28;;;;;;;;;;10341046;28;20050;-82
2023/09/09 11:10:35;;;;;;;12.52;6.65;;;;;;;;;;10317785;28;167637;-82
2023/09/09 11:15:51;;;;;;;12.60;8.57;;;;;;;;;;10461364;28;20921;-81
2023/09/09 11:20:53;;;;;;;18.73;7.95;;;;;;;;;;10434502;28;20449;-81
2023/09/09 11:41:44;;;;;;;22.75;12.35;;;;;;;;;;10403893;27;20412;-79
2023/09/09 11:46:47;;;;;;;22.52;13.13;;;;;;;;;;10479114;28;20041;-78
2023/09/09 11:51:48;;;;;;;20.65;12.18;;;;;;;;;;10431560;28;20033;-81
2023/09/09 11:56:49;;;;;;;22.17;13.00;;;;;;;;;;10455674;28;20464;-81
2023/09/09 12:01:51;;;;;;;18.52;11.55;;;;;;;;;;10470793;28;20028;-80
2023/09/09 12:06:53;;;;;;;17.20;11.20;;;;;;;;;;10461630;28;20043;-83
2023/09/09 12:11:56;;;;;;;16.05;11.57;;;;;;;;;;10435749;28;20033;-81
2023/09/09 12:26:19;;;;;;;7.07;5.40;;;;;;;;;;10515305;27;20389;-82
2023/09/09 12:31:20;;;;;;;10.60;5.82;;;;;;;;;;10383870;28;20073;-80
2023/09/09 12:36:22;;;;;;;7.07;5.25;;;;;;;;;;10388959;28;20033;-87
2023/09/09 12:41:23;;;;;;;8.43;5.60;;;;;;;;;;10383425;28;20474;-84
2023/09/09 12:46:27;;;;;;;7.18;5.28;;;;;;;;;;10418466;28;20580;-84
2023/09/09 12:51:35;;;;;;;;;;;;;;;;;;10387379;28;20029;-83
2023/09/09 12:56:37;;;;;;;8.38;6.30;;;;;;;;;;10423820;28;20013;-82
2023/09/09 13:01:38;;;;;;;7.93;5.53;;;;;;;;;;10384407;28;20052;-82
2023/09/09 13:06:39;;;;;;;7.15;5.70;;;;;;;;;;10393807;28;20039;-85
2023/09/09 13:11:40;;;;;;;8.40;6.18;;;;;;;;;;10391615;28;20034;-84
2023/09/09 13:16:43;;;;;;;6.43;5.30;;;;;;;;;;10432935;28;20029;-82
2023/09/09 13:21:44;;;;;;;9.70;6.07;;;;;;;;;;10436044;28;20150;-84
2023/09/09 13:26:45;;;;;;;7.22;5.75;;;;;;;;;;10433578;28;20082;-82
2023/09/09 13:31:46;;;;;;;11.68;6.10;;;;;;;;;;10410908;28;20319;-79
2023/09/09 13:36:47;;;;;;;10.05;6.38;;;;;;;;;;10403898;28;20111;-79
2023/09/09 13:41:48;;;;;;;8.48;6.03;;;;;;;;;;10405263;28;20668;-83
2023/09/09 13:46:49;;;;;;;20.38;13.23;;;;;;;;;;10389755;28;20025;-82
2023/09/09 13:51:50;;;;;;;8.18;6.13;;;;;;;;;;10404002;28;20029;-83
2023/09/09 13:56:53;;;;;;;8.20;5.82;;;;;;;;;;10400717;28;20024;-85
2023/09/09 14:01:54;;;;;;;9.90;6.22;;;;;;;;;;10394262;28;158056;-80
2023/09/09 14:06:55;;;;;;;8.75;7.00;;;;;;;;;;10443145;28;20036;-84
2023/09/09 14:11:56;;;;;;;8.02;6.45;;;;;;;;;;10447324;28;20048;-84
2023/09/09 14:16:57;;;;;;;11.73;6.85;;;;;;;;;;10446938;28;20033;-82
2023/09/09 14:21:58;;;;;;;9.27;6.22;;;;;;;;;;10447554;28;20045;-82
2023/09/09 14:26:59;;;;;;;9.40;6.47;;;;;;;;;;10445993;28;20029;-86
2023/09/09 14:32:00;;;;;;;9.68;6.53;;;;;;;;;;10447098;28;20473;-82
2023/09/09 14:37:03;;;;;;;8.38;6.03;;;;;;;;;;10446753;28;20033;-85
2023/09/09 14:42:04;;;;;;;10.10;6.32;;;;;;;;;;10443577;28;20041;-82
2023/09/09 14:47:05;;;;;;;9.77;6.38;;;;;;;;;;10445013;28;20048;-83
2023/09/09 14:52:07;;;;;;;10.13;6.82;;;;;;;;;;10445307;28;20025;-82
2023/09/09 14:57:08;;;;;;;10.60;7.28;;;;;;;;;;10444682;28;20028;-81
2023/09/09 15:02:09;;;;;;;11.95;6.72;;;;;;;;;;10437258;28;20098;-82
2023/09/09 15:07:11;;;;;;;10.15;6.90;;;;;;;;;;10432067;28;20040;-83
2023/09/09 15:12:12;;;;;;;9.55;6.72;;;;;;;;;;10444526;28;20060;-85
2023/09/09 15:17:13;;;;;;;12.48;6.78;;;;;;;;;;10442549;28;20021;-82
2023/09/09 15:22:14;;;;;;;9.48;6.85;;;;;;;;;;10442017;28;20412;-81
2023/09/09 15:27:15;;;;;;;9.70;7.10;;;;;;;;;;10443471;28;20048;-83
2023/09/09 15:32:16;;;;;;;8.93;7.32;;;;;;;;;;10441267;28;20025;-82
2023/09/09 15:37:17;;;;;;;12.20;8.77;;;;;;;;;;10435720;28;20108;-83
2023/09/09 15:42:18;;;;;;;14.15;8.88;;;;;;;;;;10442125;28;20045;-82
2023/09/09 15:47:19;;;;;;;21.48;10.20;;;;;;;;;;10442083;28;20090;-82
2023/09/09 15:52:21;;;;;;;15.15;9.65;;;;;;;;;;10443316;28;20025;-82
2023/09/09 15:57:22;;;;;;;14.63;9.35;;;;;;;;;;10442774;28;20029;-82
2023/09/09 16:02:24;;;;;;;14.65;10.82;;;;;;;;;;10437507;28;20037;-82
2023/09/09 16:07:36;;;;;;;10.65;8.35;;;;;;;;;;10435938;28;20025;-81
2023/09/09 16:12:37;;;;;;;14.80;9.60;;;;;;;;;;10441374;28;20617;-85
2023/09/09 16:17:38;;;;;;;14.45;10.82;;;;;;;;;;10441755;28;20036;-85
2023/09/09 16:22:39;;;;;;;11.07;8.25;;;;;;;;;;10443182;28;20045;-81
2023/09/09 16:27:41;;;;;;;9.68;7.43;;;;;;;;;;10442444;28;20469;-81
2023/09/09 16:32:42;;;;;;;15.95;8.93;;;;;;;;;;10436102;28;20495;-84
2023/09/09 16:37:43;;;;;;;11.65;8.23;;;;;;;;;;10435960;28;20044;-82
2023/09/09 16:42:44;;;;;;;13.15;8.73;;;;;;;;;;10441968;28;20051;-83
2023/09/09 16:47:45;;;;;;;9.93;7.65;;;;;;;;;;10441796;28;20372;-81
2023/09/09 16:52:46;;;;;;;10.88;8.57;;;;;;;;;;10442616;28;20032;-81
2023/09/09 16:57:47;;;;;;;13.20;8.95;;;;;;;;;;10442720;28;20036;-84
2023/09/09 17:02:48;;;;;;;13.40;8.43;;;;;;;;;;10439891;28;20122;-81
2023/09/09 17:07:49;;;;;;;16.25;10.52;;;;;;;;;;10441211;28;20078;-81
2023/09/09 17:12:50;;;;;;;14.60;9.77;;;;;;;;;;10449121;28;20566;-81
2023/09/09 17:17:51;;;;;;;13.60;9.05;;;;;;;;;;10450157;28;20033;-81
2023/09/09 17:22:52;;;;;;;12.20;8.90;;;;;;;;;;10448877;28;20061;-82
2023/09/09 17:27:53;;;;;;;14.90;9.45;;;;;;;;;;10449994;28;20025;-82
2023/09/09 17:32:55;;;;;;;14.30;8.55;;;;;;;;;;10442367;28;20033;-81
2023/09/09 17:37:56;;;;;;;14.68;9.88;;;;;;;;;;10445301;28;20527;-83
2023/09/09 17:42:57;;;;;;;15.35;9.30;;;;;;;;;;10448466;28;20117;-82
2023/09/09 17:47:58;;;;;;;15.82;10.15;;;;;;;;;;10449158;28;20580;-83
2023/09/09 17:52:59;;;;;;;16.40;10.00;;;;;;;;;;10435906;28;20029;-83
2023/09/09 17:58:01;;;;;;;21.90;12.15;;;;;;;;;;10448623;28;20064;-83
2023/09/09 18:03:02;;;;;;;24.88;14.93;;;;;;;;;;10442775;28;20504;-83
2023/09/09 18:08:04;;;;;;;17.98;10.95;;;;;;;;;;10437831;28;20029;-84
2023/09/09 18:13:05;;;;;;;17.80;12.07;;;;;;;;;;10447943;28;20111;-84
2023/09/09 18:18:06;;;;;;;13.00;9.10;;;;;;;;;;10447999;28;20017;-83
2023/09/09 18:23:07;;;;;;;14.45;10.45;;;;;;;;;;10447846;28;20065;-82
2023/09/09 18:28:08;;;;;;;17.52;10.80;;;;;;;;;;10446649;28;20029;-81
2023/09/09 18:33:11;;;;;;;15.48;10.02;;;;;;;;;;10438868;28;20716;-80
2023/09/09 18:38:12;;;;;;;13.63;9.48;;;;;;;;;;10436418;28;20028;-84
2023/09/09 18:43:13;;;;;;;15.70;10.30;;;;;;;;;;10446488;28;20679;-82
2023/09/09 18:48:17;;;;;;;18.17;10.85;;;;;;;;;;10447142;28;20020;-82
2023/09/09 18:53:19;;;;;;;16.30;10.32;;;;;;;;;;10446666;28;20551;-81
2023/09/09 18:58:21;;;;;;;13.75;9.75;;;;;;;;;;10446985;28;20103;-82
2023/09/09 19:03:25;;;;;;;17.50;11.73;;;;;;;;;;10432755;28;20045;-85
2023/09/09 19:08:26;;;;;;;19.98;12.15;;;;;;;;;;10440241;28;20511;-81
2023/09/09 19:13:27;;;;;;;22.20;11.27;;;;;;;;;;10445160;28;20060;-82
2023/09/09 19:18:28;;;;;;;28.88;14.57;;;;;;;;;;10446079;28;20033;-82
2023/09/09 19:23:29;;;;;;;17.90;11.95;;;;;;;;;;10444028;28;20103;-82
2023/09/09 19:28:30;;;;;;;23.15;13.13;;;;;;;;;;10444752;28;20042;-82
2023/09/09 19:33:31;;;;;;;21.40;13.20;;;;;;;;;;10435412;28;20093;-83
2023/09/09 19:38:32;;;;;;;27.08;13.15;;;;;;;;;;10444043;28;20029;-79
2023/09/09 19:43:33;;;;;;;27.02;15.02;;;;;;;;;;10441521;28;20746;-82
2023/09/09 19:48:34;;;;;;;20.67;12.40;;;;;;;;;;10430112;28;20037;-84
2023/09/09 19:53:36;;;;;;;21.80;13.73;;;;;;;;;;10444072;28;20036;-81
2023/09/09 19:58:37;;;;;;;18.40;12.18;;;;;;;;;;10444285;28;20025;-82
2023/09/09 20:03:38;;;;;;;23.95;14.55;;;;;;;;;;10443858;28;20064;-82
2023/09/09 20:08:39;;;;;;;24.88;14.32;;;;;;;;;;10441267;28;20427;-81
2023/09/09 20:13:40;;;;;;;17.80;12.10;;;;;;;;;;10442509;28;20036;-82
2023/09/09 20:18:41;;;;;;;21.48;14.32;;;;;;;;;;10438432;28;20109;-82
2023/09/09 20:23:42;;;;;;;24.90;14.20;;;;;;;;;;10442169;28;20060;-82
2023/09/09 20:28:43;;;;;;;18.98;13.48;;;;;;;;;;10442227;28;20024;-84
2023/09/09 20:33:44;;;;;;;20.90;13.20;;;;;;;;;;10443639;28;20047;-81
2023/09/09 20:38:45;;;;;;;19.77;13.25;;;;;;;;;;10442991;28;20504;-82
2023/09/09 20:43:46;;;;;;;21.95;13.85;;;;;;;;;;10443878;28;20048;-82
2023/09/09 20:48:47;;;;;;;22.88;15.02;;;;;;;;;;10440488;28;20032;-83
2023/09/09 20:53:49;;;;;;;24.70;18.30;;;;;;;;;;10451073;28;20039;-82
2023/09/09 20:58:50;;;;;;;21.23;14.45;;;;;;;;;;10451423;28;20037;-83
2023/09/09 21:03:51;;;;;;;30.38;18.35;;;;;;;;;;10451101;28;20098;-82
2023/09/09 21:08:52;;;;;;;27.08;17.25;;;;;;;;;;10422376;28;20021;-82
2023/09/09 21:13:53;;;;;;;30.85;20.00;;;;;;;;;;10450740;28;20029;-84
2023/09/09 21:18:54;;;;;;;24.40;15.82;;;;;;;;;;10449908;28;20083;-82
2023/09/09 21:23:55;;;;;;;24.67;16.83;;;;;;;;;;10447553;28;20149;-84
2023/09/09 21:28:56;;;;;;;26.40;16.30;;;;;;;;;;10436760;28;20397;-84
2023/09/09 21:33:57;;;;;;;27.40;16.45;;;;;;;;;;10449288;28;20183;-85
2023/09/09 21:38:58;;;;;;;23.30;13.90;;;;;;;;;;10448874;28;20029;-82
2023/09/09 21:43:59;;;;;;;26.73;17.60;;;;;;;;;;10437611;28;20045;-82
2023/09/09 21:49:00;;;;;;;23.42;16.15;;;;;;;;;;10448992;28;20033;-85
2023/09/09 21:54:01;;;;;;;24.38;15.65;;;;;;;;;;10448961;28;20028;-84
2023/09/09 21:59:02;;;;;;;23.42;14.20;;;;;;;;;;10447653;28;20033;-84
2023/09/09 22:04:03;;;;;;;24.95;16.25;;;;;;;;;;10448107;28;20124;-82
2023/09/09 22:09:04;;;;;;;26.58;17.45;;;;;;;;;;10448400;28;20484;-82
2023/09/09 22:14:06;;;;;;;23.15;14.90;;;;;;;;;;10448475;28;20661;-86
2023/09/09 22:19:07;;;;;;;21.58;14.15;;;;;;;;;;10447467;28;20116;-82
2023/09/09 22:24:08;;;;;;;26.05;16.85;;;;;;;;;;10446250;28;20394;-84
2023/09/09 22:29:09;;;;;;;23.35;15.07;;;;;;;;;;10447798;28;20144;-81
2023/09/09 22:34:10;;;;;;;24.02;16.23;;;;;;;;;;10445363;28;20029;-83
2023/09/09 22:39:11;;;;;;;24.55;15.70;;;;;;;;;;10446880;28;20570;-83
2023/09/09 22:44:12;;;;;;;25.77;16.55;;;;;;;;;;10437517;28;20071;-82
2023/09/09 22:49:14;;;;;;;26.73;17.30;;;;;;;;;;10441899;28;20033;-83
2023/09/09 22:54:15;;;;;;;24.88;15.60;;;;;;;;;;10442189;28;20086;-83
2023/09/09 22:59:16;;;;;;;23.38;15.48;;;;;;;;;;10424773;28;20087;-83
2023/09/09 23:04:17;;;;;;;28.20;17.08;;;;;;;;;;10417306;28;20060;-83
2023/09/09 23:09:19;;;;;;;33.97;21.10;;;;;;;;;;10432017;28;20030;-83
2023/09/09 23:14:22;;;;;;;29.92;19.27;;;;;;;;;;10430156;28;20021;-84
2023/09/09 23:19:23;;;;;;;24.60;16.35;;;;;;;;;;10438438;28;20041;-88
2023/09/09 23:24:24;;;;;;;24.58;17.08;;;;;;;;;;10445121;28;20060;-86
2023/09/09 23:29:25;;;;;;;27.15;16.65;;;;;;;;;;10444312;28;20067;-84
2023/09/09 23:34:26;;;;;;;25.50;15.95;;;;;;;;;;10444524;28;20028;-84
2023/09/09 23:39:27;;;;;;;22.38;14.52;;;;;;;;;;10444273;28;20579;-85
2023/09/09 23:44:28;;;;;;;22.38;14.82;;;;;;;;;;10444414;28;20064;-84
2023/09/09 23:49:29;;;;;;;22.48;13.95;;;;;;;;;;10443232;28;20112;-85
2023/09/09 23:54:30;;;;;;;20.95;13.95;;;;;;;;;;10444532;28;20086;-85
2023/09/09 23:59:31;;;;;;;23.50;15.18;;;;;;;;;;10442377;28;20583;-86
